Main page
METAR-TAF:

METAR-TAF

Airports :

Bobo Dioulasso Airport

Bobo-Dioulasso, Burkina Faso

latitude: 11-10N, longitude: 004-19W, elevation: 460 m

Current weather observation

The report was made 27 minutes ago, at 23:00 UTC
Wind 2 kt from the Southwest
Temperature 26°C
Humidity 54%
Pressure 1013 hPa
Visibility: 8000 m

METAR: DFOO 282300Z 22002KT 8000 NSC 26/16 Q1013

Time: 23:27 (23:27 UTC)

Forecast

The report was made 6 hours and 27 minutes ago, at 17:00 UTC
Forecast valid from 28 at 18 UTC to 29 at 18 UTC
Wind 10 kt from the East
Visibility: 8000 m
Temporary
from 28 at 18 UTC to 28 at 21 UTC
Visibility: 4000 m
haze
Temporary
from 29 at 06 UTC to 29 at 10 UTC
Visibility: 3500 m
haze

TAF: DFOO 281700Z 2818/2918 08010KT 8000 NSC TEMPO 2818/2821 4000 HZ TEMPO 2906/2910 3500 HZ

Weather observations and forecasts of more than 4000 airports (METAR and TAF reports).

The available stations are represented by yellow and red dots on the map.

Hover mouse over dot to see the name of the station.

Then click to see weather observations and forecasts.

To change the map : click on the green buttons with a black cross to zoom in, on the green button with a dash to zoom out, or on the green arrows for adjacent maps.


METAR-TAF: